Time;durP1;ratioP1;P1;durP2;ratioP2;P2;SDS_P1;SDS_P2;PMS_P1;PMS_P2;Temp;Humidity;BMP_temperature;BMP_pressure;BME280_temperature;BME280_humidity;BME280_pressure;Samples;Min_cycle;Max_cycle;Signal;HPM_P1;HPM_P2
2021/04/10 00:01:29;;;;;;;3.90;2.87;;;12.10;45.30;;;;;;5049598;28;20630;-82
2021/04/10 00:03:56;;;;;;;4.03;2.37;;;12.20;45.20;;;;;;5046621;28;20632;-82
2021/04/10 00:06:23;;;;;;;3.00;2.57;;;12.30;45.30;;;;;;5052433;28;21492;-82
2021/04/10 00:08:51;;;;;;;2.87;2.57;;;12.10;45.10;;;;;;5044131;28;20635;-81
2021/04/10 00:11:18;;;;;;;4.60;2.40;;;12.00;45.30;;;;;;5053468;28;20634;-82
2021/04/10 00:13:46;;;;;;;3.87;2.70;;;12.00;45.50;;;;;;5046421;28;20729;-82
2021/04/10 00:16:13;;;;;;;2.87;2.43;;;11.80;45.30;;;;;;5049413;28;20629;-82
2021/04/10 00:18:39;;;;;;;4.30;2.77;;;11.90;46.30;;;;;;5050074;28;20697;-82
2021/04/10 00:21:06;;;;;;;4.10;2.60;;;11.80;46.30;;;;;;5050885;28;21026;-82
2021/04/10 00:23:32;;;;;;;4.63;2.63;;;11.80;45.90;;;;;;5050085;28;21257;-82
2021/04/10 00:25:59;;;;;;;4.20;2.30;;;11.70;45.40;;;;;;5050054;28;20681;-82
2021/04/10 00:28:25;;;;;;;6.30;2.53;;;11.60;45.40;;;;;;5058227;28;21336;-82
2021/04/10 00:31:06;;;;;;;3.20;2.40;;;11.60;45.60;;;;;;5043251;28;20671;-81
2021/04/10 00:33:32;;;;;;;4.20;2.30;;;11.60;45.60;;;;;;5047919;28;20669;-82
2021/04/10 00:35:59;;;;;;;2.37;2.17;;;11.60;46.00;;;;;;5046751;28;20956;-82
2021/04/10 00:38:25;;;;;;;4.83;2.77;;;11.60;45.50;;;;;;5052323;28;20733;-82
2021/04/10 00:40:51;;;;;;;4.25;2.25;;;11.60;45.60;;;;;;5048346;28;20726;-82
2021/04/10 00:43:18;;;;;;;2.40;2.20;;;11.60;45.50;;;;;;5041805;28;20204;-82
2021/04/10 00:45:44;;;;;;;2.23;1.87;;;11.60;45.70;;;;;;5050509;28;20666;-82
2021/04/10 00:48:11;;;;;;;2.90;2.13;;;11.60;45.90;;;;;;5046372;28;20639;-82
2021/04/10 00:50:38;;;;;;;2.37;2.00;;;11.60;45.60;;;;;;5054825;28;20630;-82
2021/04/10 00:53:04;;;;;;;2.57;2.37;;;11.70;45.90;;;;;;5045644;28;20623;-82
2021/04/10 00:55:31;;;;;;;4.60;2.10;;;11.70;46.20;;;;;;5064488;28;20622;-83
2021/04/10 00:57:58;;;;;;;2.60;2.23;;;11.70;46.10;;;;;;5050104;28;21024;-82
2021/04/10 01:00:24;;;;;;;2.30;2.10;;;11.70;45.40;;;;;;5053272;28;20663;-82
2021/04/10 01:02:52;;;;;;;3.30;1.83;;;11.90;45.80;;;;;;5045958;28;20644;-81
2021/04/10 01:05:22;;;;;;;8.87;2.87;;;11.90;45.40;;;;;;5046510;28;20642;-82
2021/04/10 01:07:49;;;;;;;2.07;1.83;;;11.80;45.80;;;;;;5049189;28;20970;-81
2021/04/10 01:10:19;;;;;;;2.40;2.07;;;11.80;45.70;;;;;;5048204;28;20636;-82
2021/04/10 01:12:58;;;;;;;3.07;2.23;;;11.70;46.00;;;;;;5048255;28;20626;-82
2021/04/10 01:15:36;;;;;;;2.63;2.43;;;11.80;46.10;;;;;;5046301;28;20662;-82
2021/04/10 01:18:09;;;;;;;4.43;2.60;;;11.90;46.60;;;;;;5045625;28;20627;-82
2021/04/10 01:20:54;;;;;;;3.17;2.73;;;11.80;45.90;;;;;;5048364;28;20614;-81
2021/04/10 01:23:53;;;;;;;2.47;2.17;;;11.90;45.90;;;;;;5044881;28;20626;-82
2021/04/10 01:26:34;;;;;;;2.93;1.80;;;11.60;45.90;;;;;;5049612;28;21546;-82
2021/04/10 01:29:06;;;;;;;3.87;1.90;;;11.70;46.30;;;;;;5043209;28;20639;-82
2021/04/10 01:31:39;;;;;;;1.73;1.63;;;11.70;45.90;;;;;;5042259;28;21213;-82
2021/04/10 01:34:10;;;;;;;1.87;1.73;;;11.80;46.20;;;;;;5046743;28;20975;-83
2021/04/10 01:36:41;;;;;;;4.83;2.03;;;11.70;46.10;;;;;;5045992;28;20642;-82
2021/04/10 01:39:13;;;;;;;2.03;1.90;;;11.70;46.10;;;;;;5047947;28;21046;-82
2021/04/10 01:41:45;;;;;;;2.37;1.90;;;11.60;46.80;;;;;;5046374;28;21168;-82
2021/04/10 01:44:14;;;;;;;2.50;2.30;;;11.50;46.50;;;;;;5053751;28;21029;-82
2021/04/10 01:46:43;;;;;;;5.73;2.10;;;11.60;47.00;;;;;;5042876;28;20642;-82
2021/04/10 01:49:11;;;;;;;2.17;2.00;;;11.70;46.80;;;;;;5051958;28;20701;-83
2021/04/10 01:51:39;;;;;;;3.53;2.10;;;11.80;46.60;;;;;;5047345;28;20634;-82
2021/04/10 01:54:08;;;;;;;3.50;3.30;;;11.70;46.30;;;;;;5049906;28;20632;-83
2021/04/10 01:56:38;;;;;;;4.63;1.87;;;11.70;46.40;;;;;;5050193;28;20631;-82
2021/04/10 01:59:08;;;;;;;2.80;1.77;;;11.70;46.70;;;;;;5051754;28;20773;-82
2021/04/10 02:01:37;;;;;;;4.23;1.90;;;11.70;46.50;;;;;;5050647;28;20639;-82
2021/04/10 02:04:06;;;;;;;4.60;1.57;;;11.70;47.00;;;;;;5066844;28;20661;-82
2021/04/10 02:06:34;;;;;;;1.60;1.50;;;11.70;46.60;;;;;;5051157;28;20738;-82
2021/04/10 02:09:02;;;;;;;2.83;1.97;;;11.60;46.60;;;;;;5047949;28;20641;-82
2021/04/10 02:11:33;;;;;;;2.60;1.30;;;11.60;46.90;;;;;;5046967;28;20623;-82
2021/04/10 02:14:01;;;;;;;4.00;1.80;;;11.50;46.80;;;;;;5046706;28;20712;-82
2021/04/10 02:16:29;;;;;;;2.00;1.30;;;11.70;47.10;;;;;;5058376;28;20626;-82
2021/04/10 02:18:56;;;;;;;2.60;1.73;;;11.60;47.10;;;;;;5049322;28;21167;-82
2021/04/10 02:21:26;;;;;;;2.13;1.80;;;11.60;47.00;;;;;;5054518;28;21002;-82
2021/04/10 02:23:53;;;;;;;4.47;1.70;;;11.60;47.00;;;;;;5047808;28;20745;-82
2021/04/10 02:26:19;;;;;;;1.87;1.57;;;11.70;47.20;;;;;;5061255;28;20677;-82
2021/04/10 02:28:46;;;;;;;1.57;1.47;;;11.80;47.10;;;;;;5049865;28;20642;-82
2021/04/10 02:31:22;;;;;;;2.47;1.53;;;11.80;46.80;;;;;;5054501;28;20610;-83
2021/04/10 02:33:50;;;;;;;2.30;2.07;;;11.80;47.30;;;;;;5051720;28;20633;-82
2021/04/10 02:36:25;;;;;;;4.50;1.60;;;11.70;47.00;;;;;;5044202;28;20630;-82
2021/04/10 02:38:53;;;;;;;2.23;1.70;;;11.70;47.30;;;;;;5054273;28;20665;-82
2021/04/10 02:41:23;;;;;;;3.97;1.73;;;11.60;47.50;;;;;;5050452;28;20631;-83
2021/04/10 02:43:56;;;;;;;2.57;2.00;;;11.60;47.80;;;;;;5053899;28;20633;-83
2021/04/10 02:46:27;;;;;;;1.63;1.53;;;11.60;47.80;;;;;;5048209;28;20626;-82
2021/04/10 02:48:59;;;;;;;1.70;1.60;;;11.40;47.80;;;;;;5052566;28;20622;-82
2021/04/10 02:51:35;;;;;;;1.87;1.77;;;11.50;48.50;;;;;;5048884;28;20196;-82
2021/04/10 02:54:04;;;;;;;2.00;1.80;;;11.40;48.00;;;;;;5044382;28;20627;-82
2021/04/10 02:56:33;;;;;;;2.13;1.57;;;11.50;48.20;;;;;;5049325;28;20625;-82
2021/04/10 02:59:01;;;;;;;2.28;1.92;;;11.70;48.40;;;;;;5059315;28;20680;-82
2021/04/10 03:01:30;;;;;;;1.80;1.67;;;11.60;48.10;;;;;;5052041;28;20243;-82
2021/04/10 03:03:58;;;;;;;3.07;1.77;;;11.40;48.10;;;;;;5052214;28;20630;-82
2021/04/10 03:06:28;;;;;;;3.17;1.63;;;11.50;48.40;;;;;;5045987;28;20984;-82
2021/04/10 03:08:55;;;;;;;2.07;1.83;;;11.50;48.60;;;;;;5059340;28;20562;-82
2021/04/10 03:11:21;;;;;;;2.67;2.00;;;11.50;48.50;;;;;;5046578;28;20630;-82
2021/04/10 03:13:48;;;;;;;1.80;1.70;;;11.40;48.30;;;;;;5051151;28;20614;-82
2021/04/10 03:16:15;;;;;;;2.63;1.60;;;11.50;48.40;;;;;;5048408;28;20725;-82
2021/04/10 03:18:44;;;;;;;2.37;1.40;;;11.60;48.50;;;;;;5053274;28;20658;-82
2021/04/10 03:21:11;;;;;;;2.40;2.03;;;11.70;48.40;;;;;;5051554;28;20626;-82
2021/04/10 03:23:39;;;;;;;2.95;1.60;;;11.60;48.40;;;;;;5049825;28;20627;-82
2021/04/10 03:26:06;;;;;;;1.90;1.73;;;11.60;49.00;;;;;;5062915;28;20195;-82
2021/04/10 03:28:34;;;;;;;1.80;1.70;;;11.70;48.70;;;;;;5047847;28;20628;-82
2021/04/10 03:31:03;;;;;;;1.50;1.37;;;11.60;48.70;;;;;;5052157;28;20985;-82
2021/04/10 03:33:32;;;;;;;2.00;1.90;;;11.50;48.80;;;;;;5047417;28;20634;-82
2021/04/10 03:36:00;;;;;;;1.65;1.55;;;11.30;49.90;;;;;;5051878;28;21202;-82
2021/04/10 03:38:28;;;;;;;1.37;1.27;;;11.20;49.90;;;;;;5046139;28;20841;-82
2021/04/10 03:40:56;;;;;;;1.80;1.70;;;11.30;50.00;;;;;;5049322;28;20633;-82
2021/04/10 03:43:24;;;;;;;1.90;1.80;;;11.30;50.10;;;;;;5049836;28;20804;-82
2021/04/10 03:45:50;;;;;;;1.77;1.60;;;11.30;50.20;;;;;;5057016;28;20623;-82
2021/04/10 03:48:18;;;;;;;2.70;2.30;;;11.30;50.30;;;;;;5051007;28;20626;-82
2021/04/10 03:50:45;;;;;;;4.45;2.05;;;11.30;50.30;;;;;;5050091;28;20630;-82
2021/04/10 03:53:12;;;;;;;1.40;1.30;;;11.40;50.30;;;;;;5051624;28;20224;-82
2021/04/10 03:55:39;;;;;;;9.07;1.67;;;11.50;50.40;;;;;;5046440;28;20695;-82
2021/04/10 03:58:06;;;;;;;1.80;1.67;;;11.40;50.10;;;;;;5052445;28;20622;-83
2021/04/10 04:00:33;;;;;;;1.70;1.40;;;11.30;50.40;;;;;;5047654;28;20619;-82
2021/04/10 04:03:00;;;;;;;1.60;1.50;;;11.30;50.70;;;;;;5050630;28;20651;-82
2021/04/10 04:05:28;;;;;;;2.03;1.83;;;11.20;50.80;;;;;;5050029;28;20717;-81
2021/04/10 04:07:55;;;;;;;1.40;1.30;;;11.30;50.80;;;;;;5048292;28;21030;-82
2021/04/10 04:10:22;;;;;;;2.27;1.40;;;11.20;50.90;;;;;;5049638;28;20224;-82
2021/04/10 04:12:49;;;;;;;2.63;1.73;;;11.20;51.10;;;;;;5047668;28;20626;-82
2021/04/10 04:15:17;;;;;;;2.95;1.70;;;11.20;51.80;;;;;;5060482;28;20634;-83
2021/04/10 04:17:43;;;;;;;1.88;1.63;;;11.20;52.80;;;;;;5045912;28;20224;-82
2021/04/10 04:20:11;;;;;;;1.60;1.50;;;11.20;53.80;;;;;;5051955;28;20259;-83
2021/04/10 04:22:37;;;;;;;2.70;1.77;;;11.00;54.40;;;;;;5038772;28;20192;-82
2021/04/10 04:25:07;;;;;;;1.42;1.33;;;10.80;54.90;;;;;;5045106;28;20642;-82
2021/04/10 04:27:33;;;;;;;1.20;1.10;;;10.70;55.20;;;;;;5047477;28;20595;-82
2021/04/10 04:30:00;;;;;;;2.22;2.03;;;10.60;55.30;;;;;;5050525;28;20295;-82
2021/04/10 04:32:27;;;;;;;2.47;2.08;;;10.70;55.60;;;;;;5049936;28;20269;-82
2021/04/10 04:34:53;;;;;;;1.77;1.67;;;10.80;55.30;;;;;;5061520;28;20226;-82
2021/04/10 04:37:20;;;;;;;2.65;1.88;;;10.80;54.00;;;;;;5046607;28;20655;-82
2021/04/10 04:39:46;;;;;;;2.17;1.80;;;10.90;53.90;;;;;;5045273;28;20227;-82
2021/04/10 04:42:13;;;;;;;4.05;1.85;;;10.90;53.70;;;;;;5044244;28;20212;-81
2021/04/10 04:44:39;;;;;;;2.33;1.95;;;10.90;53.90;;;;;;5056363;28;20199;-82
2021/04/10 04:47:06;;;;;;;2.80;1.92;;;11.00;53.60;;;;;;5046985;28;20263;-83
2021/04/10 04:49:33;;;;;;;1.50;1.40;;;11.00;53.30;;;;;;5052645;28;20208;-82
2021/04/10 04:52:00;;;;;;;2.05;1.67;;;11.00;53.60;;;;;;5051246;28;20200;-82
2021/04/10 04:54:26;;;;;;;3.72;1.70;;;10.90;52.50;;;;;;5046680;28;20207;-82
2021/04/10 04:56:52;;;;;;;2.00;1.50;;;10.70;52.80;;;;;;5050282;28;20231;-83
2021/04/10 04:59:19;;;;;;;5.88;1.30;;;10.70;53.20;;;;;;5042459;28;20227;-82
2021/04/10 05:01:45;;;;;;;1.65;1.42;;;10.60;53.60;;;;;;5051024;28;20569;-83
2021/04/10 05:04:12;;;;;;;3.38;1.20;;;10.50;53.80;;;;;;5050039;28;20637;-83
2021/04/10 05:06:39;;;;;;;1.45;1.33;;;10.60;55.10;;;;;;5050401;28;20717;-82
2021/04/10 05:09:06;;;;;;;1.60;1.50;;;10.50;56.80;;;;;;5053742;28;20188;-83
2021/04/10 05:11:33;;;;;;;3.35;1.73;;;10.20;58.60;;;;;;5049205;28;20196;-82
2021/04/10 05:14:00;;;;;;;1.83;1.48;;;10.00;60.60;;;;;;5048675;28;20282;-83
2021/04/10 05:16:28;;;;;;;2.47;1.65;;;9.90;63.20;;;;;;5046416;28;20192;-83
2021/04/10 05:18:58;;;;;;;2.42;1.90;;;9.70;63.90;;;;;;5047337;28;20247;-82
2021/04/10 05:21:25;;;;;;;3.03;1.83;;;9.60;64.70;;;;;;5044130;28;20272;-82
2021/04/10 05:23:52;;;;;;;2.25;1.92;;;9.60;65.30;;;;;;5041351;28;20208;-82
2021/04/10 05:26:19;;;;;;;2.58;1.98;;;9.60;64.70;;;;;;5047729;28;20200;-83
2021/04/10 05:28:45;;;;;;;1.98;1.80;;;9.60;64.40;;;;;;5050323;28;20196;-83
2021/04/10 05:31:12;;;;;;;2.38;1.80;;;9.70;64.30;;;;;;5053202;28;20211;-83
2021/04/10 05:33:38;;;;;;;2.17;1.58;;;9.70;64.10;;;;;;5050756;28;20195;-83
2021/04/10 05:36:05;;;;;;;1.65;1.55;;;9.70;63.80;;;;;;5046550;28;20743;-83
2021/04/10 05:38:32;;;;;;;2.53;1.77;;;9.80;63.30;;;;;;5056648;28;20222;-82
2021/04/10 05:40:59;;;;;;;1.40;1.30;;;9.80;62.00;;;;;;5050392;28;20669;-83
2021/04/10 05:43:26;;;;;;;2.53;1.63;;;9.80;61.60;;;;;;5050040;28;20212;-83
2021/04/10 05:45:52;;;;;;;1.50;1.40;;;10.00;60.10;;;;;;5053158;28;20211;-83
2021/04/10 05:48:19;;;;;;;4.03;2.05;;;10.10;60.00;;;;;;5049991;28;20208;-83
2021/04/10 05:50:45;;;;;;;4.05;2.05;;;10.10;60.00;;;;;;5054386;28;20207;-83
2021/04/10 05:53:12;;;;;;;1.83;1.70;;;10.00;59.40;;;;;;5050399;28;20200;-82
2021/04/10 05:55:38;;;;;;;1.40;1.30;;;10.00;59.30;;;;;;5051516;28;20200;-83
2021/04/10 05:58:05;;;;;;;2.95;1.80;;;10.00;58.70;;;;;;5049042;28;20257;-82
2021/04/10 06:00:32;;;;;;;1.45;1.33;;;10.10;58.80;;;;;;5053669;28;20590;-82
2021/04/10 06:02:58;;;;;;;3.53;1.70;;;10.00;58.50;;;;;;5040552;28;20216;-82
2021/04/10 06:05:25;;;;;;;1.98;1.83;;;10.00;58.70;;;;;;5052484;28;20603;-82
2021/04/10 06:07:51;;;;;;;1.98;1.45;;;10.00;58.00;;;;;;5048971;28;20695;-82
2021/04/10 06:10:19;;;;;;;1.83;1.63;;;10.00;58.30;;;;;;5058341;28;20286;-82
2021/04/10 06:12:46;;;;;;;2.13;1.70;;;10.10;58.20;;;;;;5061312;28;20241;-82
2021/04/10 06:15:17;;;;;;;4.72;1.92;;;10.20;58.10;;;;;;5053911;28;20212;-82
2021/04/10 06:17:44;;;;;;;3.05;1.80;;;10.10;57.70;;;;;;5049339;28;20222;-83
2021/04/10 06:20:11;;;;;;;1.90;1.65;;;10.10;57.90;;;;;;5055167;28;20957;-81
2021/04/10 06:22:38;;;;;;;1.77;1.60;;;10.30;58.20;;;;;;5050312;28;20239;-81
2021/04/10 06:25:06;;;;;;;1.77;1.52;;;10.30;57.60;;;;;;5043574;28;20211;-83
2021/04/10 06:27:33;;;;;;;2.95;1.42;;;10.40;58.00;;;;;;5047942;28;20204;-83
2021/04/10 06:30:00;;;;;;;2.70;1.77;;;10.40;57.70;;;;;;5047212;28;20200;-83
2021/04/10 06:32:27;;;;;;;1.50;1.40;;;10.60;58.00;;;;;;5053269;28;20206;-83
2021/04/10 06:34:54;;;;;;;4.68;1.85;;;10.70;58.00;;;;;;5069065;28;20668;-83
2021/04/10 06:37:20;;;;;;;1.40;1.30;;;10.90;58.10;;;;;;5071850;28;20211;-83
2021/04/10 06:39:46;;;;;;;3.00;2.05;;;11.00;57.10;;;;;;5057137;28;20661;-82
2021/04/10 06:42:13;;;;;;;2.85;1.98;;;10.80;57.10;;;;;;5072403;28;20665;-81
2021/04/10 06:44:40;;;;;;;2.15;1.85;;;10.80;57.50;;;;;;5064369;28;20196;-81
2021/04/10 06:47:07;;;;;;;1.83;1.55;;;11.00;58.30;;;;;;5052380;28;20203;-81
2021/04/10 06:49:35;;;;;;;2.35;2.10;;;10.80;57.40;;;;;;5052489;28;20218;-82
2021/04/10 06:52:02;;;;;;;2.78;2.05;;;10.70;57.60;;;;;;5056110;28;20257;-82
2021/04/10 06:54:32;;;;;;;2.25;1.85;;;10.70;57.90;;;;;;5045450;28;20192;-82
2021/04/10 06:57:04;;;;;;;2.88;2.28;;;10.80;58.40;;;;;;5053613;28;20224;-82
2021/04/10 06:59:43;;;;;;;2.10;1.90;;;11.10;57.60;;;;;;5047040;28;20223;-82
2021/04/10 07:02:11;;;;;;;1.65;1.55;;;11.10;58.30;;;;;;5049806;28;20211;-82
2021/04/10 07:04:39;;;;;;;1.95;1.70;;;10.70;59.60;;;;;;5051624;28;20290;-82
2021/04/10 07:07:06;;;;;;;2.10;1.90;;;10.50;60.60;;;;;;5049228;28;20207;-82
2021/04/10 07:09:34;;;;;;;2.20;1.98;;;10.40;62.70;;;;;;5056134;28;20195;-82
2021/04/10 07:12:01;;;;;;;1.77;1.50;;;10.20;61.30;;;;;;5050602;28;20290;-82
2021/04/10 07:14:28;;;;;;;2.35;1.85;;;10.20;62.40;;;;;;5055896;28;20196;-82
2021/04/10 07:16:56;;;;;;;1.55;1.45;;;10.50;63.70;;;;;;5046324;28;20196;-81
2021/04/10 07:19:25;;;;;;;1.60;1.50;;;10.30;60.90;;;;;;5053759;28;20223;-82
2021/04/10 07:22:05;;;;;;;2.95;1.65;;;10.30;62.00;;;;;;5049434;28;20227;-82
2021/04/10 07:24:39;;;;;;;1.70;1.60;;;10.50;62.80;;;;;;5048372;28;20200;-82
2021/04/10 07:27:07;;;;;;;2.20;1.83;;;10.60;60.90;;;;;;5051105;28;20196;-82
2021/04/10 07:29:35;;;;;;;2.05;1.83;;;10.60;60.10;;;;;;5048350;28;20267;-82
2021/04/10 07:32:23;;;;;;;3.25;1.70;;;10.50;61.00;;;;;;5058417;28;20203;-81
2021/04/10 07:34:50;;;;;;;1.65;1.55;;;10.70;59.60;;;;;;5051772;28;20273;-82
2021/04/10 07:37:33;;;;;;;6.43;1.88;;;10.50;59.40;;;;;;5052169;28;20203;-81
2021/04/10 07:40:01;;;;;;;1.90;1.80;;;10.60;59.50;;;;;;5047040;28;20633;-82
2021/04/10 07:42:29;;;;;;;1.75;1.50;;;10.70;60.40;;;;;;5048457;28;20211;-81
2021/04/10 07:44:56;;;;;;;1.95;1.80;;;10.70;59.60;;;;;;5047577;28;20202;-81
2021/04/10 07:47:37;;;;;;;3.88;1.60;;;10.70;59.50;;;;;;5051318;28;20657;-82
2021/04/10 07:50:14;;;;;;;1.65;1.33;;;10.60;59.60;;;;;;5050197;28;20607;-82
2021/04/10 07:52:42;;;;;;;1.80;1.42;;;10.60;59.60;;;;;;5049626;28;20623;-82
2021/04/10 07:55:09;;;;;;;2.72;1.60;;;10.80;60.50;;;;;;5050137;28;20207;-82
2021/04/10 07:57:36;;;;;;;2.00;1.80;;;10.80;59.90;;;;;;5055571;28;20192;-82
2021/04/10 08:00:05;;;;;;;2.33;2.03;;;10.70;61.10;;;;;;5052634;28;20223;-82
2021/04/10 08:02:35;;;;;;;1.70;1.60;;;10.80;63.90;;;;;;5046777;28;20204;-84
2021/04/10 08:05:06;;;;;;;3.92;2.05;;;10.60;63.80;;;;;;5048175;28;20590;-85
2021/04/10 08:08:04;;;;;;;1.90;1.80;;;10.70;65.70;;;;;;5050762;28;20200;-84
2021/04/10 08:10:31;;;;;;;1.88;1.75;;;10.60;66.50;;;;;;5048114;28;20211;-82
2021/04/10 08:13:08;;;;;;;1.75;1.65;;;10.60;68.00;;;;;;5049216;28;20200;-82
2021/04/10 08:15:35;;;;;;;2.92;1.63;;;10.70;68.50;;;;;;5048136;28;20195;-82
2021/04/10 08:18:20;;;;;;;2.50;1.80;;;10.60;68.30;;;;;;5049255;28;20211;-82
2021/04/10 08:20:50;;;;;;;3.05;1.75;;;10.50;67.50;;;;;;5050397;28;20234;-81
2021/04/10 08:23:19;;;;;;;1.50;1.40;;;10.50;66.70;;;;;;5047025;28;20288;-82
2021/04/10 08:25:46;;;;;;;1.90;1.70;;;10.50;66.30;;;;;;5049541;28;20215;-84
2021/04/10 08:28:14;;;;;;;1.77;1.67;;;10.70;66.10;;;;;;5048220;28;20307;-83
2021/04/10 08:30:41;;;;;;;2.13;1.60;;;10.70;65.60;;;;;;5046071;28;20207;-82
2021/04/10 08:33:07;;;;;;;1.55;1.45;;;10.70;64.50;;;;;;5047076;28;20235;-83
2021/04/10 08:35:34;;;;;;;3.63;1.90;;;10.70;64.10;;;;;;5049421;28;20219;-84
2021/04/10 08:38:02;;;;;;;1.63;1.52;;;10.70;63.30;;;;;;5047767;28;20245;-83
2021/04/10 08:40:31;;;;;;;1.70;1.60;;;10.90;63.90;;;;;;5047848;28;20314;-83
2021/04/10 08:42:59;;;;;;;1.80;1.70;;;10.90;62.00;;;;;;5057718;28;20195;-84
2021/04/10 08:45:30;;;;;;;1.48;1.30;;;10.90;62.80;;;;;;5046322;28;20203;-85
2021/04/10 08:48:02;;;;;;;2.15;2.05;;;10.80;63.20;;;;;;5047322;28;20205;-85
2021/04/10 08:50:31;;;;;;;5.53;1.60;;;10.80;63.80;;;;;;5047029;28;20222;-84
2021/04/10 08:52:59;;;;;;;2.65;1.40;;;10.90;63.70;;;;;;5050079;28;20289;-84
2021/04/10 08:55:27;;;;;;;1.85;1.65;;;10.90;62.60;;;;;;5052923;28;20199;-85
2021/04/10 08:57:55;;;;;;;3.10;1.70;;;10.90;62.80;;;;;;5049410;28;21314;-85
2021/04/10 09:00:26;;;;;;;2.20;1.40;;;11.00;63.00;;;;;;5045485;28;20232;-85
2021/04/10 09:02:55;;;;;;;4.10;2.42;;;11.30;63.50;;;;;;5048288;28;20630;-85
2021/04/10 09:05:25;;;;;;;1.40;1.30;;;11.30;61.60;;;;;;5051011;28;20196;-85
2021/04/10 09:08:01;;;;;;;2.10;1.70;;;11.30;61.20;;;;;;5044174;28;20204;-86
2021/04/10 09:10:49;;;;;;;1.70;1.35;;;11.30;61.20;;;;;;5044635;28;20729;-86
2021/04/10 09:13:29;;;;;;;3.00;1.20;;;11.40;60.00;;;;;;5043007;28;20737;-86
2021/04/10 09:16:38;;;;;;;1.20;1.10;;;11.50;59.40;;;;;;5051345;28;20835;-84
2021/04/10 09:19:14;;;;;;;1.80;1.37;;;11.60;60.10;;;;;;5040520;28;21017;-84
2021/04/10 09:21:44;;;;;;;2.07;1.87;;;11.80;59.30;;;;;;5046579;28;20625;-83
2021/04/10 09:24:28;;;;;;;1.73;1.53;;;11.90;58.80;;;;;;5051289;28;20676;-84
2021/04/10 09:27:05;;;;;;;1.93;1.70;;;11.90;58.40;;;;;;5047169;28;20662;-84
2021/04/10 09:29:44;;;;;;;1.53;1.43;;;12.20;58.70;;;;;;5049032;28;20641;-84
2021/04/10 09:32:13;;;;;;;1.57;1.47;;;12.20;57.80;;;;;;5040867;28;20624;-83
2021/04/10 09:34:55;;;;;;;1.57;1.47;;;12.30;57.60;;;;;;5047911;28;20713;-83
2021/04/10 09:37:59;;;;;;;1.20;1.10;;;12.50;58.20;;;;;;5038341;28;20620;-83
2021/04/10 09:40:49;;;;;;;2.40;1.60;;;12.80;57.40;;;;;;5052760;28;20729;-83
2021/04/10 09:43:20;;;;;;;2.53;1.70;;;12.70;56.40;;;;;;5047480;28;20630;-83
2021/04/10 09:45:52;;;;;;;1.20;1.10;;;12.50;56.30;;;;;;5051351;28;20733;-84
2021/04/10 09:48:34;;;;;;;1.40;1.20;;;12.60;57.40;;;;;;5050270;28;20725;-84
2021/04/10 09:51:15;;;;;;;3.80;1.30;;;12.70;56.70;;;;;;5046076;28;21000;-84
2021/04/10 09:53:47;;;;;;;1.53;1.10;;;12.60;56.50;;;;;;5048669;28;20629;-84
2021/04/10 09:56:17;;;;;;;1.73;1.63;;;12.60;56.30;;;;;;5042924;28;20631;-83
2021/04/10 09:58:48;;;;;;;2.00;1.30;;;12.50;56.20;;;;;;5049475;28;20634;-83
2021/04/10 10:01:29;;;;;;;1.57;1.37;;;12.60;55.70;;;;;;5049159;28;20688;-83
2021/04/10 10:03:57;;;;;;;1.40;1.30;;;12.40;55.80;;;;;;5052136;28;20622;-84
2021/04/10 10:06:32;;;;;;;1.23;1.13;;;12.60;56.40;;;;;;5047142;28;20638;-84
2021/04/10 10:09:00;;;;;;;1.00;1.00;;;13.00;56.40;;;;;;5042891;28;20621;-84
2021/04/10 10:11:30;;;;;;;1.60;1.30;;;13.20;56.10;;;;;;5047329;28;20622;-83
2021/04/10 10:13:58;;;;;;;1.40;1.30;;;13.30;55.10;;;;;;5053776;28;20621;-83
2021/04/10 10:16:29;;;;;;;3.10;1.27;;;13.20;55.20;;;;;;5048351;28;20641;-83
2021/04/10 10:18:57;;;;;;;1.80;1.70;;;13.30;55.30;;;;;;5045604;28;20684;-83
2021/04/10 10:21:26;;;;;;;1.37;1.27;;;13.10;54.90;;;;;;5059198;28;21235;-84
2021/04/10 10:23:55;;;;;;;1.73;1.50;;;13.10;54.70;;;;;;5045745;28;20622;-84
2021/04/10 10:26:26;;;;;;;2.47;2.27;;;13.10;55.20;;;;;;5045193;28;20680;-83
2021/04/10 10:28:59;;;;;;;2.10;1.30;;;13.40;54.80;;;;;;5048245;28;21199;-83
2021/04/10 10:31:29;;;;;;;2.87;1.27;;;13.70;54.70;;;;;;5046065;28;20630;-84
2021/04/10 10:34:05;;;;;;;1.47;1.03;;;13.60;54.00;;;;;;5050779;28;20626;-83
2021/04/10 10:36:34;;;;;;;1.53;1.43;;;13.50;53.80;;;;;;5049866;28;20626;-84
2021/04/10 10:39:03;;;;;;;1.23;1.13;;;13.70;54.00;;;;;;5050566;28;21028;-84
2021/04/10 10:41:42;;;;;;;3.70;1.30;;;13.70;53.70;;;;;;5049276;28;20995;-84
2021/04/10 10:44:11;;;;;;;1.40;1.30;;;13.50;53.70;;;;;;5043992;28;20631;-84
2021/04/10 10:46:39;;;;;;;2.60;2.40;;;13.30;53.70;;;;;;5051004;28;20673;-84
2021/04/10 10:49:10;;;;;;;2.00;1.47;;;13.30;54.40;;;;;;5052599;28;20626;-83
2021/04/10 10:51:39;;;;;;;1.27;1.17;;;13.20;53.90;;;;;;5052323;28;20633;-84
2021/04/10 10:54:06;;;;;;;2.10;1.20;;;13.40;54.10;;;;;;5046814;28;20633;-84
2021/04/10 10:56:35;;;;;;;1.50;1.07;;;13.60;54.00;;;;;;5038523;28;21206;-84
2021/04/10 10:59:03;;;;;;;0.90;0.77;;;13.50;53.50;;;;;;5051672;28;20778;-84
2021/04/10 11:01:33;;;;;;;1.33;1.23;;;13.50;53.30;;;;;;5048105;28;20757;-84
2021/04/10 11:04:03;;;;;;;1.10;1.00;;;13.30;53.00;;;;;;5049393;28;20622;-84
2021/04/10 11:06:31;;;;;;;1.40;1.23;;;13.40;53.40;;;;;;5059011;28;20629;-84
2021/04/10 11:09:00;;;;;;;1.40;1.30;;;13.70;53.00;;;;;;5053765;28;20844;-84
2021/04/10 11:11:30;;;;;;;1.20;1.10;;;13.90;53.40;;;;;;5058508;28;20607;-84
2021/04/10 11:13:58;;;;;;;1.20;1.10;;;14.20;53.00;;;;;;5046614;28;20631;-84
2021/04/10 11:16:25;;;;;;;1.20;1.10;;;14.20;52.20;;;;;;5061256;28;20649;-84
2021/04/10 11:18:55;;;;;;;1.27;1.10;;;14.40;52.70;;;;;;5048354;28;20626;-84
2021/04/10 11:21:25;;;;;;;1.33;1.23;;;14.70;51.70;;;;;;5054176;28;20615;-84
2021/04/10 11:24:03;;;;;;;1.57;1.27;;;15.10;51.70;;;;;;5049579;28;20628;-84
2021/04/10 11:26:35;;;;;;;3.23;1.73;;;15.30;51.00;;;;;;5046421;28;20620;-84
2021/04/10 11:29:19;;;;;;;2.53;2.33;;;15.60;51.00;;;;;;5051031;28;21019;-84
2021/04/10 11:32:01;;;;;;;2.40;1.20;;;15.40;51.30;;;;;;5042656;28;20923;-84
2021/04/10 11:34:28;;;;;;;0.90;0.90;;;15.20;49.90;;;;;;5051273;28;20640;-83
2021/04/10 11:36:56;;;;;;;1.20;1.10;;;14.90;51.30;;;;;;5042717;28;20618;-83
2021/04/10 11:39:23;;;;;;;3.27;0.80;;;15.30;50.60;;;;;;5051028;28;20648;-83
2021/04/10 11:41:50;;;;;;;2.00;1.33;;;15.60;50.40;;;;;;5046687;28;20617;-83
2021/04/10 11:44:18;;;;;;;1.10;1.00;;;15.50;49.40;;;;;;5049526;28;20654;-83
2021/04/10 11:46:45;;;;;;;1.10;1.00;;;15.40;49.60;;;;;;5047494;28;20994;-83
2021/04/10 11:49:23;;;;;;;4.20;1.50;;;15.50;49.80;;;;;;5050772;28;20710;-83
2021/04/10 11:51:51;;;;;;;1.30;1.07;;;15.50;49.50;;;;;;5043137;28;20626;-82
2021/04/10 11:54:31;;;;;;;1.80;1.00;;;15.70;49.80;;;;;;5047857;28;20635;-83
2021/04/10 11:56:58;;;;;;;0.90;0.90;;;15.90;48.90;;;;;;5044301;28;20628;-83
2021/04/10 11:59:34;;;;;;;2.73;0.90;;;15.80;48.80;;;;;;5047968;28;20665;-85
2021/04/10 12:02:01;;;;;;;1.27;1.03;;;15.80;48.80;;;;;;5047816;28;20705;-83
2021/04/10 12:04:31;;;;;;;1.30;1.20;;;15.90;48.70;;;;;;5049006;28;20625;-84
2021/04/10 12:07:05;;;;;;;1.40;1.30;;;15.90;48.40;;;;;;5049903;28;20618;-86
2021/04/10 12:09:36;;;;;;;1.30;1.20;;;16.10;48.90;;;;;;5043486;28;20647;-82
2021/04/10 12:12:02;;;;;;;2.07;1.53;;;16.00;48.40;;;;;;5049366;28;20649;-81
2021/04/10 12:14:31;;;;;;;1.37;1.27;;;16.30;48.60;;;;;;5044619;28;20648;-86
2021/04/10 12:16:57;;;;;;;2.00;1.47;;;16.50;47.10;;;;;;5047680;28;20630;-84
2021/04/10 12:19:24;;;;;;;1.30;1.20;;;16.80;47.50;;;;;;5047322;28;20671;-84
2021/04/10 12:21:52;;;;;;;1.37;1.20;;;17.40;47.10;;;;;;5050511;28;20701;-85
2021/04/10 12:24:18;;;;;;;1.20;1.10;;;17.30;46.30;;;;;;5044796;28;20618;-84
2021/04/10 12:26:46;;;;;;;1.00;0.90;;;17.60;46.60;;;;;;5049421;28;20630;-84
2021/04/10 12:29:14;;;;;;;0.87;0.87;;;17.80;45.90;;;;;;5054675;28;20613;-84
2021/04/10 12:31:41;;;;;;;1.10;1.00;;;18.10;45.90;;;;;;5048271;28;20638;-85
2021/04/10 12:34:08;;;;;;;1.57;1.40;;;18.40;45.40;;;;;;5054036;28;21225;-85
2021/04/10 12:36:34;;;;;;;1.07;0.97;;;18.60;45.60;;;;;;5049457;28;20620;-85
2021/04/10 12:39:01;;;;;;;2.00;1.00;;;19.30;44.70;;;;;;5051254;28;20613;-85
2021/04/10 12:41:28;;;;;;;1.00;0.93;;;19.60;44.80;;;;;;5047014;28;20721;-85
2021/04/10 12:43:55;;;;;;;1.60;1.00;;;19.50;43.20;;;;;;5042354;28;20936;-85
2021/04/10 12:46:22;;;;;;;1.23;1.00;;;19.20;43.50;;;;;;5052084;28;20669;-85
2021/04/10 12:48:48;;;;;;;1.10;1.00;;;18.80;42.80;;;;;;5060610;28;20637;-85
2021/04/10 12:51:15;;;;;;;1.13;0.83;;;18.60;44.20;;;;;;5059435;28;20624;-85
2021/04/10 12:53:42;;;;;;;1.50;1.40;;;19.50;42.80;;;;;;5046155;28;20631;-87
2021/04/10 12:56:12;;;;;;;1.30;1.20;;;20.30;41.80;;;;;;5043100;28;20625;-86
2021/04/10 12:58:39;;;;;;;0.93;0.83;;;23.70;39.70;;;;;;5044741;28;20628;-87
2021/04/10 13:01:06;;;;;;;1.73;1.10;;;26.90;34.60;;;;;;5046835;28;21261;-87